Peck, Louisiana
Current Conditions -  °F | °C
As of 5:55 AM on Wednesday 28 Jan 2015 (Local Time) from KHEZ Reporting Station
Clear Clear  
Wind Chill: 43°   Ceiling: Unl
Heat Index: 46°   Visibility: 10mi
Dew Point: 34°   Wind: 7mph
Humidity: 62%   Direction: 140°SE
Pressure: 30.22"   Gusts: NA
Location:  31.8591°N, 91.6926°W
Report Text: KHEZ 281155Z AUTO 14006KT 10SM CLR 08/01 A3022 RMK AO1 10110 20050 52010
Loading
Personal Weather Stations






























Interactive Weather Map New forecast layout! Learn more

10-Day Weather Forecast

Advertisements
Track Severe Weather on mobile